createdAt,value
2023-02-11T00:02:17.057Z,-0.46
2023-02-11T00:07:18.911Z,-0.46
2023-02-11T00:12:20.749Z,-0.41
2023-02-11T00:17:22.731Z,-0.30
2023-02-11T00:22:24.790Z,-0.28
2023-02-11T00:27:26.621Z,-0.24
2023-02-11T00:32:28.476Z,-0.23
2023-02-11T00:37:30.286Z,-0.27
2023-02-11T00:42:32.414Z,-0.23
2023-02-11T00:47:34.231Z,-0.19
2023-02-11T00:52:36.033Z,-0.14
2023-02-11T00:57:37.973Z,-0.10
2023-02-11T01:02:42.850Z,-0.02
2023-02-11T01:07:45.527Z,0.01
2023-02-11T01:12:47.463Z,0.06
2023-02-11T01:17:49.316Z,0.02
2023-02-11T01:22:51.155Z,0.03
2023-02-11T01:27:53.025Z,0.03
2023-02-11T01:32:54.848Z,0.06
2023-02-11T01:37:56.701Z,0.12
2023-02-11T01:42:59.560Z,0.19
2023-02-11T01:48:03.344Z,0.24
2023-02-11T01:53:23.627Z,0.29
2023-02-11T01:58:26.301Z,0.29
2023-02-11T02:03:30.479Z,0.35
2023-02-11T02:08:55.855Z,0.35
2023-02-11T02:13:57.783Z,0.29
2023-02-11T02:19:05.602Z,0.24
2023-02-11T02:24:32.820Z,0.41
2023-02-11T02:30:10.139Z,0.62
2023-02-11T02:35:36.739Z,0.73
2023-02-11T02:40:47.683Z,0.77
2023-02-11T02:45:49.809Z,0.74
2023-02-11T02:51:01.713Z,0.82
2023-02-11T02:56:42.369Z,0.92
2023-02-11T03:02:11.018Z,1.02
2023-02-11T03:07:23.433Z,1.13
2023-02-11T03:12:27.830Z,1.19
2023-02-11T03:17:33.254Z,1.16
2023-02-11T03:22:46.414Z,1.15
2023-02-11T03:27:57.291Z,1.19
2023-02-11T03:33:12.662Z,1.23
2023-02-11T03:38:25.228Z,1.27
2023-02-11T03:43:40.691Z,1.28
2023-02-11T03:48:48.781Z,1.26
2023-02-11T03:53:55.060Z,1.31
2023-02-11T03:58:57.424Z,1.37
2023-02-11T04:03:59.188Z,1.47
2023-02-11T04:09:01.014Z,1.54
2023-02-11T04:14:02.816Z,1.61
2023-02-11T04:19:05.158Z,1.59
2023-02-11T04:24:07.007Z,1.61
2023-02-11T04:29:08.790Z,1.61
2023-02-11T04:34:10.621Z,1.56
2023-02-11T04:39:12.644Z,1.47
2023-02-11T04:44:14.453Z,1.46
2023-02-11T04:49:17.428Z,1.50
2023-02-11T04:54:20.034Z,1.49
2023-02-11T04:59:21.861Z,1.50
2023-02-11T05:04:23.798Z,1.52
2023-02-11T05:09:25.825Z,1.58
2023-02-11T05:14:27.622Z,1.60
2023-02-11T05:19:29.460Z,1.58
2023-02-11T05:24:35.079Z,1.58
2023-02-11T05:29:37.044Z,1.62
2023-02-11T05:34:38.834Z,1.65
2023-02-11T05:39:40.782Z,1.69
2023-02-11T05:44:42.623Z,1.75
2023-02-11T05:49:44.420Z,1.80
2023-02-11T05:54:46.238Z,1.79
2023-02-11T05:59:48.066Z,1.79
2023-02-11T06:04:49.855Z,1.82
2023-02-11T06:09:51.747Z,1.82
2023-02-11T06:14:53.880Z,1.80
2023-02-11T06:19:55.678Z,1.80
2023-02-11T06:25:01.743Z,1.79
2023-02-11T06:30:05.558Z,1.84
2023-02-11T06:35:09.988Z,1.88
2023-02-11T06:40:13.373Z,1.91
2023-02-11T06:45:15.226Z,1.88
2023-02-11T06:50:17.059Z,1.88
2023-02-11T06:55:18.904Z,1.87
2023-02-11T07:00:20.758Z,1.88
2023-02-11T07:05:22.755Z,1.92
2023-02-11T07:10:24.603Z,1.91
2023-02-11T07:15:26.595Z,1.92
2023-02-11T07:20:28.409Z,1.94
2023-02-11T07:25:30.399Z,1.96
2023-02-11T07:30:32.254Z,1.97
2023-02-11T07:35:34.035Z,1.98
2023-02-11T07:40:36.622Z,2.03
2023-02-11T07:45:39.437Z,2.08
2023-02-11T07:50:41.244Z,2.16
2023-02-11T07:55:43.659Z,2.24
2023-02-11T08:00:46.115Z,2.32
2023-02-11T08:05:47.952Z,2.17
2023-02-11T08:10:50.031Z,2.17
2023-02-11T08:15:52.267Z,2.23
2023-02-11T08:20:54.228Z,2.16
2023-02-11T08:25:56.050Z,2.04
2023-02-11T08:30:58.017Z,2.13
2023-02-11T08:36:00.210Z,2.25
2023-02-11T08:41:02.164Z,2.41
2023-02-11T08:46:04.370Z,2.48
2023-02-11T08:51:08.705Z,2.55
2023-02-11T08:56:13.531Z,2.53
2023-02-11T09:01:25.459Z,2.51
2023-02-11T09:06:28.096Z,2.64
2023-02-11T09:11:35.231Z,2.84
2023-02-11T09:16:37.154Z,2.90
2023-02-11T09:21:39.093Z,2.93
2023-02-11T09:26:43.307Z,2.98
2023-02-11T09:31:45.383Z,3.01
2023-02-11T09:36:47.236Z,2.91
2023-02-11T09:42:06.707Z,2.92
2023-02-11T09:47:34.373Z,2.89
2023-02-11T09:52:40.296Z,2.93
2023-02-11T09:57:42.237Z,2.89
2023-02-11T10:02:59.134Z,2.88
2023-02-11T10:08:16.586Z,2.97
2023-02-11T10:13:59.159Z,3.12
2023-02-11T10:19:11.399Z,2.99
2023-02-11T10:24:16.076Z,3.02
2023-02-11T10:29:36.173Z,3.08
2023-02-11T10:34:42.547Z,3.16
2023-02-11T10:39:44.368Z,3.40
2023-02-11T10:45:07.448Z,3.53
2023-02-11T10:50:30.924Z,3.41
2023-02-11T10:55:33.005Z,3.68
2023-02-11T11:00:42.527Z,4.01
2023-02-11T11:06:01.028Z,4.22
2023-02-11T11:11:09.092Z,4.03
2023-02-11T11:16:14.087Z,4.03
2023-02-11T11:21:30.561Z,3.88
2023-02-11T11:26:48.951Z,3.95
2023-02-11T11:31:52.718Z,3.96
2023-02-11T11:36:56.390Z,3.76
2023-02-11T11:41:59.611Z,3.78
2023-02-11T11:47:25.138Z,3.93
2023-02-11T11:52:48.165Z,4.09
2023-02-11T11:57:51.323Z,4.20
2023-02-11T12:03:06.778Z,4.20
2023-02-11T12:08:17.692Z,4.17
2023-02-11T12:13:37.519Z,4.18
2023-02-11T12:19:08.543Z,4.11
2023-02-11T12:24:31.948Z,4.06
2023-02-11T12:29:51.619Z,3.97
2023-02-11T12:35:06.779Z,4.06
2023-02-11T12:40:21.861Z,3.93
2023-02-11T12:45:41.005Z,3.85
2023-02-11T12:50:49.101Z,3.85
2023-02-11T12:55:59.450Z,3.83
2023-02-11T13:01:06.824Z,3.91
2023-02-11T13:06:13.465Z,3.91
2023-02-11T13:11:24.568Z,3.90
2023-02-11T13:16:38.423Z,3.86
2023-02-11T13:21:56.056Z,3.83
2023-02-11T13:27:10.334Z,3.85
2023-02-11T13:32:14.923Z,3.81
2023-02-11T13:37:28.684Z,3.82
2023-02-11T13:42:32.616Z,3.79
2023-02-11T13:47:37.249Z,3.79
2023-02-11T13:52:39.531Z,3.79
2023-02-11T13:57:42.321Z,3.77
2023-02-11T14:03:02.586Z,3.80
2023-02-11T14:08:28.794Z,3.75
2023-02-11T14:13:37.093Z,3.74
2023-02-11T14:18:45.108Z,3.75
2023-02-11T14:23:47.232Z,3.76
2023-02-11T14:29:01.639Z,3.74
2023-02-11T14:34:15.633Z,3.74
2023-02-11T14:39:53.089Z,3.72
2023-02-11T14:45:04.922Z,3.72
2023-02-11T14:50:14.350Z,3.69
2023-02-11T14:55:30.032Z,3.65
2023-02-11T15:00:31.920Z,3.66
2023-02-11T15:05:34.801Z,3.64
2023-02-11T15:10:43.434Z,3.64
2023-02-11T15:15:46.740Z,3.66
2023-02-11T15:20:50.687Z,3.61
2023-02-11T15:25:56.020Z,3.56
2023-02-11T15:31:16.048Z,3.57
2023-02-11T15:36:20.685Z,3.59
2023-02-11T15:41:48.788Z,3.64
2023-02-11T15:46:51.248Z,3.65
2023-02-11T15:51:55.417Z,3.66
2023-02-11T15:57:05.002Z,3.68
2023-02-11T16:02:34.701Z,3.70
2023-02-11T16:07:47.379Z,3.66
2023-02-11T16:13:12.581Z,3.71
2023-02-11T16:18:37.673Z,3.69
2023-02-11T16:23:44.674Z,3.69
2023-02-11T16:28:46.832Z,3.67
2023-02-11T16:33:48.634Z,3.67
2023-02-11T16:38:51.364Z,3.59
2023-02-11T16:43:57.077Z,3.58
2023-02-11T16:49:08.307Z,3.67
2023-02-11T16:54:15.293Z,3.68
2023-02-11T16:59:17.211Z,3.70
2023-02-11T17:04:27.392Z,3.64
2023-02-11T17:09:31.107Z,3.60
2023-02-11T17:14:33.125Z,3.43
2023-02-11T17:19:34.916Z,3.29
2023-02-11T17:24:36.905Z,3.15
2023-02-11T17:29:38.707Z,3.01
2023-02-11T17:34:40.565Z,2.91
2023-02-11T17:39:42.462Z,2.84
2023-02-11T17:44:44.754Z,2.79
2023-02-11T17:49:46.631Z,2.76
2023-02-11T17:54:48.505Z,2.72
2023-02-11T17:59:50.322Z,2.71
2023-02-11T18:04:52.516Z,2.69
2023-02-11T18:09:54.720Z,2.75
2023-02-11T18:14:58.343Z,2.77
2023-02-11T18:20:00.240Z,2.75
2023-02-11T18:25:02.101Z,2.76
2023-02-11T18:30:05.547Z,2.79
2023-02-11T18:35:14.803Z,2.82
2023-02-11T18:40:16.902Z,2.86
2023-02-11T18:45:18.719Z,2.85
2023-02-11T18:50:22.112Z,2.86
2023-02-11T18:55:25.966Z,2.87
2023-02-11T19:00:27.904Z,2.88
2023-02-11T19:05:33.574Z,2.90
2023-02-11T19:10:35.669Z,2.88
2023-02-11T19:15:47.346Z,2.92
2023-02-11T19:20:49.408Z,2.90
2023-02-11T19:25:51.660Z,2.90
2023-02-11T19:30:53.831Z,2.90
2023-02-11T19:36:01.600Z,2.92
2023-02-11T19:41:03.586Z,2.94
2023-02-11T19:46:05.544Z,2.94
2023-02-11T19:51:11.453Z,3.04
2023-02-11T19:56:15.841Z,3.04
2023-02-11T20:01:20.332Z,3.05
2023-02-11T20:06:25.018Z,3.12
2023-02-11T20:11:29.896Z,3.15
2023-02-11T20:16:47.074Z,3.14
2023-02-11T20:21:56.081Z,3.14
2023-02-11T20:26:58.163Z,3.14
2023-02-11T20:32:00.462Z,3.19
2023-02-11T20:37:02.744Z,3.22
2023-02-11T20:42:04.600Z,3.26
2023-02-11T20:47:06.618Z,3.33
2023-02-11T20:52:08.487Z,3.33
2023-02-11T20:57:10.373Z,3.32
2023-02-11T21:02:13.477Z,3.47
2023-02-11T21:07:15.394Z,3.51
2023-02-11T21:12:17.467Z,3.54
2023-02-11T21:17:19.548Z,3.57
2023-02-11T21:22:21.367Z,3.59
2023-02-11T21:27:24.041Z,3.60
2023-02-11T21:32:25.983Z,3.60
2023-02-11T21:37:27.865Z,3.64
2023-02-11T21:42:29.675Z,3.68
2023-02-11T21:47:31.666Z,3.67
2023-02-11T21:52:33.525Z,3.69
2023-02-11T21:57:35.679Z,3.73
2023-02-11T22:02:40.624Z,3.78
2023-02-11T22:07:42.420Z,3.83
2023-02-11T22:12:44.337Z,3.90
2023-02-11T22:17:46.238Z,3.94
2023-02-11T22:22:48.039Z,3.97
2023-02-11T22:27:49.862Z,3.99
2023-02-11T22:32:51.688Z,3.94
2023-02-11T22:37:53.510Z,3.96
2023-02-11T22:42:55.325Z,3.99
2023-02-11T22:47:57.160Z,4.04
2023-02-11T22:52:59.051Z,4.03
2023-02-11T22:58:00.955Z,4.04
2023-02-11T23:03:03.645Z,4.04
2023-02-11T23:08:07.926Z,4.08
2023-02-11T23:13:12.392Z,4.09
2023-02-11T23:18:14.999Z,4.08
2023-02-11T23:23:16.795Z,4.08
2023-02-11T23:28:18.663Z,4.11
2023-02-11T23:33:21.351Z,4.12
2023-02-11T23:38:23.156Z,4.15
2023-02-11T23:43:24.966Z,4.15
2023-02-11T23:48:27.719Z,4.18
2023-02-11T23:53:29.745Z,4.22
2023-02-11T23:58:32.156Z,4.22
